sensor_id;sensor_type;location;lat;lon;timestamp;P1;durP1;ratioP1;P2;durP2;ratioP2
20531;SDS011;10424;52.102;8.084;2023-07-31T00:00:30;4.88;;;3.70;;
20531;SDS011;10424;52.102;8.084;2023-07-31T00:02:57;6.20;;;4.00;;
20531;SDS011;10424;52.102;8.084;2023-07-31T00:05:25;5.43;;;3.97;;
20531;SDS011;10424;52.102;8.084;2023-07-31T00:07:52;5.78;;;4.30;;
20531;SDS011;10424;52.102;8.084;2023-07-31T00:10:20;5.68;;;4.55;;
20531;SDS011;10424;52.102;8.084;2023-07-31T00:12:47;5.80;;;4.30;;
20531;SDS011;10424;52.102;8.084;2023-07-31T00:15:14;7.10;;;5.20;;
20531;SDS011;10424;52.102;8.084;2023-07-31T00:17:43;7.30;;;5.55;;
20531;SDS011;10424;52.102;8.084;2023-07-31T00:20:11;8.10;;;5.60;;
20531;SDS011;10424;52.102;8.084;2023-07-31T00:22:38;7.63;;;6.03;;
20531;SDS011;10424;52.102;8.084;2023-07-31T00:25:05;7.15;;;5.60;;
20531;SDS011;10424;52.102;8.084;2023-07-31T00:27:33;7.28;;;5.40;;
20531;SDS011;10424;52.102;8.084;2023-07-31T00:30:00;6.43;;;5.43;;
20531;SDS011;10424;52.102;8.084;2023-07-31T00:32:27;7.70;;;5.80;;
20531;SDS011;10424;52.102;8.084;2023-07-31T00:34:56;6.97;;;5.72;;
20531;SDS011;10424;52.102;8.084;2023-07-31T00:37:23;7.45;;;5.70;;
20531;SDS011;10424;52.102;8.084;2023-07-31T00:39:51;5.85;;;4.80;;
20531;SDS011;10424;52.102;8.084;2023-07-31T00:42:18;6.50;;;5.35;;
20531;SDS011;10424;52.102;8.084;2023-07-31T00:44:45;5.90;;;4.93;;
20531;SDS011;10424;52.102;8.084;2023-07-31T00:47:13;5.35;;;4.60;;
20531;SDS011;10424;52.102;8.084;2023-07-31T00:49:40;6.50;;;5.20;;
20531;SDS011;10424;52.102;8.084;2023-07-31T00:52:09;6.00;;;4.90;;
20531;SDS011;10424;52.102;8.084;2023-07-31T00:54:37;6.20;;;5.00;;
20531;SDS011;10424;52.102;8.084;2023-07-31T00:57:04;4.63;;;3.67;;
20531;SDS011;10424;52.102;8.084;2023-07-31T00:59:33;4.65;;;4.15;;
20531;SDS011;10424;52.102;8.084;2023-07-31T01:02:00;4.78;;;4.20;;
20531;SDS011;10424;52.102;8.084;2023-07-31T01:04:28;4.70;;;4.20;;
20531;SDS011;10424;52.102;8.084;2023-07-31T01:06:56;4.97;;;4.30;;
20531;SDS011;10424;52.102;8.084;2023-07-31T01:09:32;6.50;;;4.13;;
20531;SDS011;10424;52.102;8.084;2023-07-31T01:12:01;6.53;;;3.97;;
20531;SDS011;10424;52.102;8.084;2023-07-31T01:14:29;3.40;;;2.72;;
20531;SDS011;10424;52.102;8.084;2023-07-31T01:16:56;4.25;;;3.28;;
20531;SDS011;10424;52.102;8.084;2023-07-31T01:19:24;5.38;;;3.17;;
20531;SDS011;10424;52.102;8.084;2023-07-31T01:24:45;4.00;;;3.10;;
20531;SDS011;10424;52.102;8.084;2023-07-31T01:27:21;3.50;;;2.75;;
20531;SDS011;10424;52.102;8.084;2023-07-31T01:32:48;3.65;;;2.80;;
20531;SDS011;10424;52.102;8.084;2023-07-31T01:35:16;4.28;;;3.25;;
20531;SDS011;10424;52.102;8.084;2023-07-31T01:37:44;3.88;;;2.88;;
20531;SDS011;10424;52.102;8.084;2023-07-31T01:40:12;5.90;;;2.67;;
20531;SDS011;10424;52.102;8.084;2023-07-31T01:42:40;3.58;;;2.50;;
20531;SDS011;10424;52.102;8.084;2023-07-31T01:45:08;3.45;;;2.30;;
20531;SDS011;10424;52.102;8.084;2023-07-31T01:47:36;5.20;;;1.92;;
20531;SDS011;10424;52.102;8.084;2023-07-31T01:50:03;2.50;;;1.67;;
20531;SDS011;10424;52.102;8.084;2023-07-31T01:52:31;2.30;;;1.50;;
20531;SDS011;10424;52.102;8.084;2023-07-31T01:54:58;2.90;;;1.75;;
20531;SDS011;10424;52.102;8.084;2023-07-31T01:57:25;3.00;;;1.90;;
20531;SDS011;10424;52.102;8.084;2023-07-31T01:59:54;3.20;;;1.88;;
20531;SDS011;10424;52.102;8.084;2023-07-31T02:02:21;5.15;;;2.00;;
20531;SDS011;10424;52.102;8.084;2023-07-31T02:04:49;2.55;;;1.80;;
20531;SDS011;10424;52.102;8.084;2023-07-31T02:07:16;2.15;;;1.65;;
20531;SDS011;10424;52.102;8.084;2023-07-31T02:09:43;2.65;;;1.90;;
20531;SDS011;10424;52.102;8.084;2023-07-31T02:12:12;2.05;;;1.45;;
20531;SDS011;10424;52.102;8.084;2023-07-31T02:14:39;3.50;;;1.70;;
20531;SDS011;10424;52.102;8.084;2023-07-31T02:17:08;2.53;;;1.88;;
20531;SDS011;10424;52.102;8.084;2023-07-31T02:19:35;3.25;;;1.40;;
20531;SDS011;10424;52.102;8.084;2023-07-31T02:22:03;2.22;;;1.40;;
20531;SDS011;10424;52.102;8.084;2023-07-31T02:24:30;1.73;;;1.42;;
20531;SDS011;10424;52.102;8.084;2023-07-31T02:26:57;2.22;;;1.60;;
20531;SDS011;10424;52.102;8.084;2023-07-31T02:29:25;1.92;;;1.40;;
20531;SDS011;10424;52.102;8.084;2023-07-31T02:31:52;1.50;;;1.40;;
20531;SDS011;10424;52.102;8.084;2023-07-31T02:34:21;1.75;;;1.30;;
20531;SDS011;10424;52.102;8.084;2023-07-31T02:36:48;1.95;;;1.30;;
20531;SDS011;10424;52.102;8.084;2023-07-31T02:39:15;1.88;;;1.42;;
20531;SDS011;10424;52.102;8.084;2023-07-31T02:41:43;3.15;;;1.75;;
20531;SDS011;10424;52.102;8.084;2023-07-31T02:44:10;2.70;;;1.73;;
20531;SDS011;10424;52.102;8.084;2023-07-31T02:46:39;2.03;;;1.67;;
20531;SDS011;10424;52.102;8.084;2023-07-31T02:49:06;1.95;;;1.63;;
20531;SDS011;10424;52.102;8.084;2023-07-31T02:51:35;2.40;;;1.80;;
20531;SDS011;10424;52.102;8.084;2023-07-31T02:54:02;2.25;;;1.95;;
20531;SDS011;10424;52.102;8.084;2023-07-31T02:56:30;3.67;;;1.80;;
20531;SDS011;10424;52.102;8.084;2023-07-31T02:58:57;2.20;;;2.00;;
20531;SDS011;10424;52.102;8.084;2023-07-31T03:01:24;2.50;;;2.30;;
20531;SDS011;10424;52.102;8.084;2023-07-31T03:03:51;3.08;;;2.17;;
20531;SDS011;10424;52.102;8.084;2023-07-31T03:06:19;2.63;;;2.42;;
20531;SDS011;10424;52.102;8.084;2023-07-31T03:08:48;3.53;;;2.83;;
20531;SDS011;10424;52.102;8.084;2023-07-31T03:11:15;4.57;;;3.13;;
20531;SDS011;10424;52.102;8.084;2023-07-31T03:13:42;4.95;;;3.20;;
20531;SDS011;10424;52.102;8.084;2023-07-31T03:16:09;6.78;;;3.80;;
20531;SDS011;10424;52.102;8.084;2023-07-31T03:18:37;7.00;;;4.72;;
20531;SDS011;10424;52.102;8.084;2023-07-31T03:21:04;8.85;;;4.57;;
20531;SDS011;10424;52.102;8.084;2023-07-31T03:23:31;9.00;;;5.50;;
20531;SDS011;10424;52.102;8.084;2023-07-31T03:26:01;9.63;;;4.63;;
20531;SDS011;10424;52.102;8.084;2023-07-31T03:28:29;9.45;;;5.25;;
20531;SDS011;10424;52.102;8.084;2023-07-31T03:30:57;8.98;;;5.60;;
20531;SDS011;10424;52.102;8.084;2023-07-31T03:33:24;11.98;;;5.47;;
20531;SDS011;10424;52.102;8.084;2023-07-31T03:35:51;11.65;;;6.07;;
20531;SDS011;10424;52.102;8.084;2023-07-31T03:38:19;14.07;;;6.50;;
20531;SDS011;10424;52.102;8.084;2023-07-31T03:40:46;14.35;;;6.55;;
20531;SDS011;10424;52.102;8.084;2023-07-31T03:43:15;15.07;;;7.28;;
20531;SDS011;10424;52.102;8.084;2023-07-31T03:45:42;14.88;;;7.28;;
20531;SDS011;10424;52.102;8.084;2023-07-31T03:48:10;15.05;;;7.47;;
20531;SDS011;10424;52.102;8.084;2023-07-31T03:50:37;17.90;;;7.93;;
20531;SDS011;10424;52.102;8.084;2023-07-31T03:53:04;16.23;;;7.22;;
20531;SDS011;10424;52.102;8.084;2023-07-31T03:55:32;17.65;;;7.80;;
20531;SDS011;10424;52.102;8.084;2023-07-31T03:57:59;19.15;;;6.93;;
20531;SDS011;10424;52.102;8.084;2023-07-31T04:00:28;16.05;;;7.45;;
20531;SDS011;10424;52.102;8.084;2023-07-31T04:02:55;17.45;;;7.45;;
20531;SDS011;10424;52.102;8.084;2023-07-31T04:05:22;15.88;;;6.78;;
20531;SDS011;10424;52.102;8.084;2023-07-31T04:07:50;15.85;;;6.50;;
20531;SDS011;10424;52.102;8.084;2023-07-31T04:10:17;18.77;;;7.30;;
20531;SDS011;10424;52.102;8.084;2023-07-31T04:12:44;14.23;;;6.40;;
20531;SDS011;10424;52.102;8.084;2023-07-31T04:15:11;18.15;;;7.32;;
20531;SDS011;10424;52.102;8.084;2023-07-31T04:17:40;18.02;;;6.70;;
20531;SDS011;10424;52.102;8.084;2023-07-31T04:20:08;13.50;;;6.30;;
20531;SDS011;10424;52.102;8.084;2023-07-31T04:22:35;14.35;;;6.95;;
20531;SDS011;10424;52.102;8.084;2023-07-31T04:25:03;13.60;;;6.57;;
20531;SDS011;10424;52.102;8.084;2023-07-31T04:27:30;21.85;;;7.43;;
20531;SDS011;10424;52.102;8.084;2023-07-31T04:29:57;15.48;;;6.57;;
20531;SDS011;10424;52.102;8.084;2023-07-31T04:32:24;21.23;;;6.95;;
20531;SDS011;10424;52.102;8.084;2023-07-31T04:34:53;16.95;;;7.22;;
20531;SDS011;10424;52.102;8.084;2023-07-31T04:37:20;14.73;;;6.38;;
20531;SDS011;10424;52.102;8.084;2023-07-31T04:39:48;16.67;;;6.32;;
20531;SDS011;10424;52.102;8.084;2023-07-31T04:42:15;17.35;;;7.40;;
20531;SDS011;10424;52.102;8.084;2023-07-31T04:44:42;16.80;;;6.88;;
20531;SDS011;10424;52.102;8.084;2023-07-31T04:47:10;17.30;;;6.57;;
20531;SDS011;10424;52.102;8.084;2023-07-31T04:49:37;24.52;;;8.27;;
20531;SDS011;10424;52.102;8.084;2023-07-31T04:52:06;20.05;;;8.45;;
20531;SDS011;10424;52.102;8.084;2023-07-31T04:54:33;22.17;;;6.93;;
20531;SDS011;10424;52.102;8.084;2023-07-31T04:57:01;15.63;;;6.57;;
20531;SDS011;10424;52.102;8.084;2023-07-31T04:59:28;16.75;;;6.38;;
20531;SDS011;10424;52.102;8.084;2023-07-31T05:01:56;16.27;;;5.15;;
20531;SDS011;10424;52.102;8.084;2023-07-31T05:04:24;18.63;;;6.63;;
20531;SDS011;10424;52.102;8.084;2023-07-31T05:06:51;20.25;;;6.72;;
20531;SDS011;10424;52.102;8.084;2023-07-31T05:09:20;17.23;;;5.75;;
20531;SDS011;10424;52.102;8.084;2023-07-31T05:11:47;15.13;;;5.70;;
20531;SDS011;10424;52.102;8.084;2023-07-31T05:14:14;18.52;;;6.28;;
20531;SDS011;10424;52.102;8.084;2023-07-31T05:16:42;16.58;;;5.30;;
20531;SDS011;10424;52.102;8.084;2023-07-31T05:19:09;19.65;;;6.43;;
20531;SDS011;10424;52.102;8.084;2023-07-31T05:21:36;16.80;;;5.55;;
20531;SDS011;10424;52.102;8.084;2023-07-31T05:24:04;14.63;;;5.65;;
20531;SDS011;10424;52.102;8.084;2023-07-31T05:26:33;19.13;;;6.72;;
20531;SDS011;10424;52.102;8.084;2023-07-31T05:29:00;13.07;;;5.50;;
20531;SDS011;10424;52.102;8.084;2023-07-31T05:31:27;15.27;;;5.60;;
20531;SDS011;10424;52.102;8.084;2023-07-31T05:33:55;13.23;;;4.93;;
20531;SDS011;10424;52.102;8.084;2023-07-31T05:36:22;15.60;;;5.10;;
20531;SDS011;10424;52.102;8.084;2023-07-31T05:38:49;13.40;;;4.72;;
20531;SDS011;10424;52.102;8.084;2023-07-31T05:41:17;19.83;;;5.38;;
20531;SDS011;10424;52.102;8.084;2023-07-31T05:43:46;16.63;;;5.57;;
20531;SDS011;10424;52.102;8.084;2023-07-31T05:46:13;14.23;;;5.47;;
20531;SDS011;10424;52.102;8.084;2023-07-31T05:48:40;18.73;;;5.43;;
20531;SDS011;10424;52.102;8.084;2023-07-31T05:51:08;16.73;;;5.72;;
20531;SDS011;10424;52.102;8.084;2023-07-31T05:53:35;16.85;;;5.25;;
20531;SDS011;10424;52.102;8.084;2023-07-31T05:56:05;15.68;;;5.32;;
20531;SDS011;10424;52.102;8.084;2023-07-31T05:58:33;16.83;;;4.95;;
20531;SDS011;10424;52.102;8.084;2023-07-31T06:01:01;11.40;;;4.47;;
20531;SDS011;10424;52.102;8.084;2023-07-31T06:03:29;15.80;;;5.30;;
20531;SDS011;10424;52.102;8.084;2023-07-31T06:05:56;14.05;;;5.15;;
20531;SDS011;10424;52.102;8.084;2023-07-31T06:08:23;11.98;;;5.28;;
20531;SDS011;10424;52.102;8.084;2023-07-31T06:10:51;13.95;;;5.53;;
20531;SDS011;10424;52.102;8.084;2023-07-31T06:13:18;17.27;;;5.57;;
20531;SDS011;10424;52.102;8.084;2023-07-31T06:15:45;15.45;;;5.30;;
20531;SDS011;10424;52.102;8.084;2023-07-31T06:18:14;12.73;;;5.10;;
20531;SDS011;10424;52.102;8.084;2023-07-31T06:20:41;14.63;;;4.55;;
20531;SDS011;10424;52.102;8.084;2023-07-31T06:23:09;14.85;;;4.93;;
20531;SDS011;10424;52.102;8.084;2023-07-31T06:25:36;13.77;;;5.05;;
20531;SDS011;10424;52.102;8.084;2023-07-31T06:28:04;11.18;;;5.00;;
20531;SDS011;10424;52.102;8.084;2023-07-31T06:30:31;11.98;;;5.43;;
20531;SDS011;10424;52.102;8.084;2023-07-31T06:32:58;14.90;;;5.05;;
20531;SDS011;10424;52.102;8.084;2023-07-31T06:35:27;13.20;;;5.40;;
20531;SDS011;10424;52.102;8.084;2023-07-31T06:37:54;12.73;;;5.05;;
20531;SDS011;10424;52.102;8.084;2023-07-31T06:40:22;12.68;;;5.60;;
20531;SDS011;10424;52.102;8.084;2023-07-31T06:42:49;16.17;;;4.93;;
20531;SDS011;10424;52.102;8.084;2023-07-31T06:45:17;12.75;;;5.30;;
20531;SDS011;10424;52.102;8.084;2023-07-31T06:47:45;15.77;;;5.53;;
20531;SDS011;10424;52.102;8.084;2023-07-31T06:50:12;11.55;;;5.00;;
20531;SDS011;10424;52.102;8.084;2023-07-31T06:52:41;12.98;;;5.40;;
20531;SDS011;10424;52.102;8.084;2023-07-31T06:55:16;13.88;;;5.20;;
20531;SDS011;10424;52.102;8.084;2023-07-31T06:57:43;14.18;;;4.90;;
20531;SDS011;10424;52.102;8.084;2023-07-31T07:00:11;14.15;;;4.82;;
20531;SDS011;10424;52.102;8.084;2023-07-31T07:02:39;13.45;;;5.07;;
20531;SDS011;10424;52.102;8.084;2023-07-31T07:05:06;12.45;;;4.70;;
20531;SDS011;10424;52.102;8.084;2023-07-31T07:07:34;12.38;;;5.38;;
20531;SDS011;10424;52.102;8.084;2023-07-31T07:10:03;11.98;;;4.95;;
20531;SDS011;10424;52.102;8.084;2023-07-31T07:12:31;11.00;;;4.90;;
20531;SDS011;10424;52.102;8.084;2023-07-31T07:14:58;11.13;;;5.05;;
20531;SDS011;10424;52.102;8.084;2023-07-31T07:17:27;11.30;;;5.30;;
20531;SDS011;10424;52.102;8.084;2023-07-31T07:19:56;14.70;;;5.70;;
20531;SDS011;10424;52.102;8.084;2023-07-31T07:22:23;13.75;;;4.65;;
20531;SDS011;10424;52.102;8.084;2023-07-31T07:24:50;12.30;;;5.15;;
20531;SDS011;10424;52.102;8.084;2023-07-31T07:27:19;13.57;;;5.28;;
20531;SDS011;10424;52.102;8.084;2023-07-31T07:29:46;14.80;;;5.20;;
20531;SDS011;10424;52.102;8.084;2023-07-31T07:32:14;11.55;;;4.68;;
20531;SDS011;10424;52.102;8.084;2023-07-31T07:34:42;8.07;;;4.40;;
20531;SDS011;10424;52.102;8.084;2023-07-31T07:37:09;12.10;;;6.00;;
20531;SDS011;10424;52.102;8.084;2023-07-31T07:39:37;12.00;;;5.20;;
20531;SDS011;10424;52.102;8.084;2023-07-31T07:42:04;15.85;;;6.35;;
20531;SDS011;10424;52.102;8.084;2023-07-31T07:44:33;14.65;;;5.70;;
20531;SDS011;10424;52.102;8.084;2023-07-31T07:47:00;11.93;;;5.85;;
20531;SDS011;10424;52.102;8.084;2023-07-31T07:49:28;18.45;;;6.30;;
20531;SDS011;10424;52.102;8.084;2023-07-31T07:51:55;11.75;;;5.25;;
20531;SDS011;10424;52.102;8.084;2023-07-31T07:54:22;12.52;;;6.50;;
20531;SDS011;10424;52.102;8.084;2023-07-31T07:56:49;14.30;;;6.63;;
20531;SDS011;10424;52.102;8.084;2023-07-31T07:59:17;12.50;;;5.82;;
20531;SDS011;10424;52.102;8.084;2023-07-31T08:01:46;14.05;;;6.20;;
20531;SDS011;10424;52.102;8.084;2023-07-31T08:04:13;11.70;;;5.93;;
20531;SDS011;10424;52.102;8.084;2023-07-31T08:06:40;6.15;;;4.18;;
20531;SDS011;10424;52.102;8.084;2023-07-31T08:09:07;11.02;;;5.97;;
20531;SDS011;10424;52.102;8.084;2023-07-31T08:11:35;9.82;;;6.07;;
20531;SDS011;10424;52.102;8.084;2023-07-31T08:14:02;8.55;;;5.72;;
20531;SDS011;10424;52.102;8.084;2023-07-31T08:16:29;11.82;;;6.75;;
20531;SDS011;10424;52.102;8.084;2023-07-31T08:18:58;11.07;;;5.40;;
20531;SDS011;10424;52.102;8.084;2023-07-31T08:21:26;7.75;;;4.93;;
20531;SDS011;10424;52.102;8.084;2023-07-31T08:23:53;8.38;;;5.20;;
20531;SDS011;10424;52.102;8.084;2023-07-31T08:26:20;9.25;;;5.07;;
20531;SDS011;10424;52.102;8.084;2023-07-31T08:28:48;7.50;;;4.47;;
20531;SDS011;10424;52.102;8.084;2023-07-31T08:31:15;7.95;;;4.20;;
20531;SDS011;10424;52.102;8.084;2023-07-31T08:33:43;5.47;;;3.33;;
20531;SDS011;10424;52.102;8.084;2023-07-31T08:36:12;5.50;;;4.25;;
20531;SDS011;10424;52.102;8.084;2023-07-31T08:38:39;6.18;;;4.50;;
20531;SDS011;10424;52.102;8.084;2023-07-31T08:41:06;5.70;;;4.18;;
20531;SDS011;10424;52.102;8.084;2023-07-31T08:43:34;6.72;;;3.97;;
20531;SDS011;10424;52.102;8.084;2023-07-31T08:46:02;5.32;;;4.13;;
20531;SDS011;10424;52.102;8.084;2023-07-31T08:48:29;5.78;;;3.63;;
20531;SDS011;10424;52.102;8.084;2023-07-31T08:50:58;6.30;;;4.20;;
20531;SDS011;10424;52.102;8.084;2023-07-31T08:53:27;5.10;;;3.08;;
20531;SDS011;10424;52.102;8.084;2023-07-31T08:55:54;5.45;;;3.72;;
20531;SDS011;10424;52.102;8.084;2023-07-31T08:58:21;7.15;;;4.10;;
20531;SDS011;10424;52.102;8.084;2023-07-31T09:00:50;3.78;;;2.83;;
20531;SDS011;10424;52.102;8.084;2023-07-31T09:03:18;4.35;;;3.60;;
20531;SDS011;10424;52.102;8.084;2023-07-31T09:05:46;5.93;;;3.40;;
20531;SDS011;10424;52.102;8.084;2023-07-31T09:08:13;4.15;;;3.30;;
20531;SDS011;10424;52.102;8.084;2023-07-31T09:10:44;5.20;;;3.85;;
20531;SDS011;10424;52.102;8.084;2023-07-31T09:13:12;4.47;;;2.45;;
20531;SDS011;10424;52.102;8.084;2023-07-31T09:15:40;5.55;;;3.78;;
20531;SDS011;10424;52.102;8.084;2023-07-31T09:18:07;4.70;;;3.28;;
20531;SDS011;10424;52.102;8.084;2023-07-31T09:20:35;5.97;;;3.63;;
20531;SDS011;10424;52.102;8.084;2023-07-31T09:23:07;4.68;;;3.78;;
20531;SDS011;10424;52.102;8.084;2023-07-31T09:25:34;6.85;;;3.72;;
20531;SDS011;10424;52.102;8.084;2023-07-31T09:28:04;3.50;;;2.58;;
20531;SDS011;10424;52.102;8.084;2023-07-31T09:30:32;4.80;;;3.78;;
20531;SDS011;10424;52.102;8.084;2023-07-31T09:33:10;6.88;;;4.13;;
20531;SDS011;10424;52.102;8.084;2023-07-31T09:35:38;3.78;;;3.08;;
20531;SDS011;10424;52.102;8.084;2023-07-31T09:38:07;5.68;;;3.83;;
20531;SDS011;10424;52.102;8.084;2023-07-31T09:40:36;3.72;;;2.63;;
20531;SDS011;10424;52.102;8.084;2023-07-31T09:43:05;4.63;;;3.30;;
20531;SDS011;10424;52.102;8.084;2023-07-31T09:45:33;9.32;;;3.22;;
20531;SDS011;10424;52.102;8.084;2023-07-31T09:48:01;7.10;;;3.50;;
20531;SDS011;10424;52.102;8.084;2023-07-31T09:50:29;3.92;;;3.38;;
20531;SDS011;10424;52.102;8.084;2023-07-31T09:52:56;4.85;;;3.33;;
20531;SDS011;10424;52.102;8.084;2023-07-31T09:55:24;3.22;;;2.67;;
20531;SDS011;10424;52.102;8.084;2023-07-31T09:57:51;5.30;;;3.35;;
20531;SDS011;10424;52.102;8.084;2023-07-31T10:00:20;3.83;;;2.95;;
20531;SDS011;10424;52.102;8.084;2023-07-31T10:02:50;3.10;;;2.70;;
20531;SDS011;10424;52.102;8.084;2023-07-31T10:05:19;4.00;;;2.85;;
20531;SDS011;10424;52.102;8.084;2023-07-31T10:07:49;4.63;;;3.30;;
20531;SDS011;10424;52.102;8.084;2023-07-31T10:10:19;2.70;;;2.10;;
20531;SDS011;10424;52.102;8.084;2023-07-31T10:12:48;4.03;;;2.83;;
20531;SDS011;10424;52.102;8.084;2023-07-31T10:15:16;5.70;;;3.42;;
20531;SDS011;10424;52.102;8.084;2023-07-31T10:17:44;4.47;;;3.33;;
20531;SDS011;10424;52.102;8.084;2023-07-31T10:20:13;6.03;;;3.70;;
20531;SDS011;10424;52.102;8.084;2023-07-31T10:22:41;5.93;;;3.33;;
20531;SDS011;10424;52.102;8.084;2023-07-31T10:25:11;4.60;;;3.55;;
20531;SDS011;10424;52.102;8.084;2023-07-31T10:27:38;5.32;;;3.55;;
20531;SDS011;10424;52.102;8.084;2023-07-31T10:30:06;4.28;;;3.30;;
20531;SDS011;10424;52.102;8.084;2023-07-31T10:32:34;4.03;;;3.17;;
20531;SDS011;10424;52.102;8.084;2023-07-31T10:35:04;4.15;;;3.03;;
20531;SDS011;10424;52.102;8.084;2023-07-31T10:37:35;5.57;;;3.30;;
20531;SDS011;10424;52.102;8.084;2023-07-31T10:40:04;4.25;;;2.95;;
20531;SDS011;10424;52.102;8.084;2023-07-31T10:42:32;4.45;;;3.10;;
20531;SDS011;10424;52.102;8.084;2023-07-31T10:45:01;3.28;;;2.60;;
20531;SDS011;10424;52.102;8.084;2023-07-31T10:47:28;4.00;;;2.55;;
20531;SDS011;10424;52.102;8.084;2023-07-31T10:50:14;3.17;;;2.28;;
20531;SDS011;10424;52.102;8.084;2023-07-31T10:52:44;2.72;;;2.20;;
20531;SDS011;10424;52.102;8.084;2023-07-31T10:55:24;3.53;;;2.40;;
20531;SDS011;10424;52.102;8.084;2023-07-31T10:57:52;4.65;;;2.55;;
20531;SDS011;10424;52.102;8.084;2023-07-31T11:00:21;4.60;;;2.72;;
20531;SDS011;10424;52.102;8.084;2023-07-31T11:03:02;5.20;;;2.63;;
20531;SDS011;10424;52.102;8.084;2023-07-31T11:05:50;3.50;;;2.90;;
20531;SDS011;10424;52.102;8.084;2023-07-31T11:08:20;3.65;;;3.03;;
20531;SDS011;10424;52.102;8.084;2023-07-31T11:10:49;4.10;;;2.75;;
20531;SDS011;10424;52.102;8.084;2023-07-31T11:13:16;4.80;;;3.38;;
20531;SDS011;10424;52.102;8.084;2023-07-31T11:15:43;5.07;;;3.92;;
20531;SDS011;10424;52.102;8.084;2023-07-31T11:18:11;3.33;;;3.03;;
20531;SDS011;10424;52.102;8.084;2023-07-31T11:20:38;4.93;;;3.38;;
20531;SDS011;10424;52.102;8.084;2023-07-31T11:23:08;4.80;;;3.47;;
20531;SDS011;10424;52.102;8.084;2023-07-31T11:25:35;6.03;;;3.08;;
20531;SDS011;10424;52.102;8.084;2023-07-31T11:28:07;4.32;;;3.30;;
20531;SDS011;10424;52.102;8.084;2023-07-31T11:30:34;6.70;;;3.55;;
20531;SDS011;10424;52.102;8.084;2023-07-31T11:33:02;3.88;;;3.10;;
20531;SDS011;10424;52.102;8.084;2023-07-31T11:35:30;5.20;;;3.50;;
20531;SDS011;10424;52.102;8.084;2023-07-31T11:37:57;4.13;;;3.47;;
20531;SDS011;10424;52.102;8.084;2023-07-31T11:40:26;3.40;;;2.67;;
20531;SDS011;10424;52.102;8.084;2023-07-31T11:42:54;3.72;;;2.90;;
20531;SDS011;10424;52.102;8.084;2023-07-31T11:45:24;4.93;;;3.22;;
20531;SDS011;10424;52.102;8.084;2023-07-31T11:47:52;2.63;;;2.42;;
20531;SDS011;10424;52.102;8.084;2023-07-31T11:50:19;3.65;;;2.97;;
20531;SDS011;10424;52.102;8.084;2023-07-31T11:52:46;3.50;;;3.00;;
20531;SDS011;10424;52.102;8.084;2023-07-31T11:55:15;3.45;;;3.08;;
20531;SDS011;10424;52.102;8.084;2023-07-31T11:57:45;4.63;;;3.33;;
20531;SDS011;10424;52.102;8.084;2023-07-31T12:00:14;4.88;;;3.45;;
20531;SDS011;10424;52.102;8.084;2023-07-31T12:02:41;4.68;;;3.13;;
20531;SDS011;10424;52.102;8.084;2023-07-31T12:05:10;5.43;;;3.75;;
20531;SDS011;10424;52.102;8.084;2023-07-31T12:07:45;3.97;;;3.22;;
20531;SDS011;10424;52.102;8.084;2023-07-31T12:10:22;4.10;;;3.70;;
20531;SDS011;10424;52.102;8.084;2023-07-31T12:12:56;4.18;;;3.45;;
20531;SDS011;10424;52.102;8.084;2023-07-31T12:15:28;4.53;;;3.47;;
20531;SDS011;10424;52.102;8.084;2023-07-31T12:17:57;4.40;;;3.35;;
20531;SDS011;10424;52.102;8.084;2023-07-31T12:20:24;5.05;;;3.40;;
20531;SDS011;10424;52.102;8.084;2023-07-31T12:22:52;4.20;;;3.35;;
20531;SDS011;10424;52.102;8.084;2023-07-31T12:25:19;4.70;;;4.07;;
20531;SDS011;10424;52.102;8.084;2023-07-31T12:27:46;6.22;;;4.22;;
20531;SDS011;10424;52.102;8.084;2023-07-31T12:30:27;5.22;;;4.18;;
20531;SDS011;10424;52.102;8.084;2023-07-31T12:32:54;6.63;;;4.55;;
20531;SDS011;10424;52.102;8.084;2023-07-31T12:35:22;6.20;;;5.07;;
20531;SDS011;10424;52.102;8.084;2023-07-31T12:37:49;6.90;;;5.53;;
20531;SDS011;10424;52.102;8.084;2023-07-31T12:40:16;6.88;;;5.65;;
20531;SDS011;10424;52.102;8.084;2023-07-31T12:42:43;5.78;;;4.88;;
20531;SDS011;10424;52.102;8.084;2023-07-31T12:45:11;8.52;;;6.95;;
20531;SDS011;10424;52.102;8.084;2023-07-31T12:47:39;9.88;;;7.55;;
20531;SDS011;10424;52.102;8.084;2023-07-31T12:50:07;8.63;;;7.30;;
20531;SDS011;10424;52.102;8.084;2023-07-31T12:52:35;12.25;;;8.82;;
20531;SDS011;10424;52.102;8.084;2023-07-31T13:01:14;13.52;;;9.57;;
20531;SDS011;10424;52.102;8.084;2023-07-31T13:03:42;13.02;;;9.43;;
20531;SDS011;10424;52.102;8.084;2023-07-31T13:06:10;11.63;;;9.20;;
20531;SDS011;10424;52.102;8.084;2023-07-31T13:08:37;10.13;;;8.93;;
20531;SDS011;10424;52.102;8.084;2023-07-31T13:11:05;11.05;;;9.25;;
20531;SDS011;10424;52.102;8.084;2023-07-31T13:13:32;12.70;;;8.55;;
20531;SDS011;10424;52.102;8.084;2023-07-31T13:15:59;11.95;;;8.32;;
20531;SDS011;10424;52.102;8.084;2023-07-31T13:18:27;12.20;;;8.40;;
20531;SDS011;10424;52.102;8.084;2023-07-31T13:20:55;11.70;;;8.82;;
20531;SDS011;10424;52.102;8.084;2023-07-31T13:23:23;12.85;;;8.90;;
20531;SDS011;10424;52.102;8.084;2023-07-31T13:25:50;10.35;;;8.02;;
20531;SDS011;10424;52.102;8.084;2023-07-31T13:28:17;10.10;;;7.25;;
20531;SDS011;10424;52.102;8.084;2023-07-31T13:30:45;9.68;;;7.90;;
20531;SDS011;10424;52.102;8.084;2023-07-31T13:33:12;8.95;;;7.35;;
20531;SDS011;10424;52.102;8.084;2023-07-31T13:35:39;8.43;;;7.32;;
20531;SDS011;10424;52.102;8.084;2023-07-31T13:38:08;8.10;;;6.65;;
20531;SDS011;10424;52.102;8.084;2023-07-31T13:40:35;9.63;;;6.65;;
20531;SDS011;10424;52.102;8.084;2023-07-31T13:43:03;11.48;;;6.85;;
20531;SDS011;10424;52.102;8.084;2023-07-31T13:45:30;8.27;;;7.00;;
20531;SDS011;10424;52.102;8.084;2023-07-31T13:47:57;7.80;;;6.70;;
20531;SDS011;10424;52.102;8.084;2023-07-31T13:50:25;9.43;;;6.38;;
20531;SDS011;10424;52.102;8.084;2023-07-31T13:52:53;9.55;;;6.65;;
20531;SDS011;10424;52.102;8.084;2023-07-31T13:55:23;8.02;;;6.55;;
20531;SDS011;10424;52.102;8.084;2023-07-31T13:57:50;7.43;;;6.13;;
20531;SDS011;10424;52.102;8.084;2023-07-31T14:00:18;8.40;;;6.68;;
20531;SDS011;10424;52.102;8.084;2023-07-31T14:02:45;6.47;;;5.60;;
20531;SDS011;10424;52.102;8.084;2023-07-31T14:05:13;8.32;;;6.13;;
20531;SDS011;10424;52.102;8.084;2023-07-31T14:07:40;7.32;;;6.25;;
20531;SDS011;10424;52.102;8.084;2023-07-31T14:10:12;6.75;;;5.97;;
20531;SDS011;10424;52.102;8.084;2023-07-31T14:12:58;10.70;;;7.05;;
20531;SDS011;10424;52.102;8.084;2023-07-31T14:15:32;8.23;;;6.75;;
20531;SDS011;10424;52.102;8.084;2023-07-31T14:18:13;9.90;;;7.18;;
20531;SDS011;10424;52.102;8.084;2023-07-31T14:20:40;11.13;;;7.35;;
20531;SDS011;10424;52.102;8.084;2023-07-31T14:23:08;8.23;;;6.60;;
20531;SDS011;10424;52.102;8.084;2023-07-31T14:25:35;7.05;;;6.35;;
20531;SDS011;10424;52.102;8.084;2023-07-31T14:28:04;9.70;;;6.40;;
20531;SDS011;10424;52.102;8.084;2023-07-31T14:30:31;9.63;;;6.63;;
20531;SDS011;10424;52.102;8.084;2023-07-31T14:32:58;8.13;;;5.50;;
20531;SDS011;10424;52.102;8.084;2023-07-31T14:35:27;6.78;;;6.05;;
20531;SDS011;10424;52.102;8.084;2023-07-31T14:37:54;7.93;;;6.38;;
20531;SDS011;10424;52.102;8.084;2023-07-31T14:40:22;6.15;;;5.22;;
20531;SDS011;10424;52.102;8.084;2023-07-31T14:42:49;7.45;;;6.45;;
20531;SDS011;10424;52.102;8.084;2023-07-31T14:45:18;7.55;;;6.75;;
20531;SDS011;10424;52.102;8.084;2023-07-31T14:47:45;8.32;;;6.30;;
20531;SDS011;10424;52.102;8.084;2023-07-31T14:50:13;6.47;;;5.88;;
20531;SDS011;10424;52.102;8.084;2023-07-31T14:52:40;6.88;;;6.18;;
20531;SDS011;10424;52.102;8.084;2023-07-31T14:55:07;10.13;;;6.45;;
20531;SDS011;10424;52.102;8.084;2023-07-31T14:57:35;6.68;;;4.30;;
20531;SDS011;10424;52.102;8.084;2023-07-31T15:00:03;9.30;;;6.13;;